Oxford, FL (34484)

11:35 AM EST on February 10, 2016 (GMT -0500)
Oxford | | Change Station
CLOSE
Current Station
Personal Weather Station
Location: Oxford, FL
Elevation: 79 ft
Nearby Weather Stations
Active Advisory: Freeze Watch

Elev 79 ft 28.95 °N, 82.02 °W | Updated 39 seconds ago

Clear
Clear
53.2 °F
Feels Like 53.2 °F
N
23.7
Wind Variable Wind from WNW
Gusts 27.5 mph

Today
High -- | Low -- °F
--% Chance of Precip.
Yesterday
High -- | Low -- °F
Precip. -- in
Pressure 30.25 in
Visibility 10.0 miles
Clouds Clear
Dew Point 21 °F
Humidity 28%
Rainfall 0.00 in
Snow Depth Not available.
7:11 AM 6:14 PM
Waxing Crescent, 6% visible
METAR KLEE 101553Z 31013G19KT 10SM CLR 11/M06 A3025 RMK AO2 SLP243 T01111061
Pressure 30.25 in
Visibility 10.0 miles
Clouds Clear
Dew Point 21 °F
Humidity 28%
Rainfall 0.00 in
Snow Depth Not available.
7:11 AM 6:14 PM
Waxing Crescent, 6% visible
METAR KLEE 101553Z 31013G19KT 10SM CLR 11/M06 A3025 RMK AO2 SLP243 T01111061

10-Day Weather Forecast

Almanac

Astronomy

Feb. 10, 2016 Rise Set
Actual Time
Civil Twilight
Nautical Twilight
Astronomical Twilight
Moon
Length of Visible Light
Length of Day
Tomorrow will be .
, % of the Moon is Illuminated

Today's Extremes

State Highs State Lows

Community

WunderPhotos

Upload Photos

1,891,881 photos uploaded!

WunderBlog® & News

Nearby

Air Quality

  Air Quality AQ Index Pollutant
Not available.

Snow Depth

Station Depth Elevation

Earthquake Activity

City Distance Mag. Time & Date
Minimum magnitude displayed is 2.5.

Coastal Water Temperatures

Place Temperature

Stations

Nearby Weather Stations

Station Location Temp. Windchill Dew Point Humidity Wind Precip. Elev Updated Type
                   

Watches & Warnings

Freeze Watch
Issued: 3:55 AM EST Feb. 10, 2016 – National Weather Service

... Freeze watch in effect from late tonight through Thursday
morning...

The National Weather Service in Tampa Bay area - Ruskin FL has
issued a freeze watch... which is in effect from late tonight
through Thursday morning.

* Temperature... 29 to 32 degrees

* impacts... 2 or more hours of temperatures at or below freezing
are possible.

Precautionary/preparedness actions...

A freeze watch is issued for the potential of a widespread and
damaging freeze within 24 to 48 hours. During the freeze
period... temperatures may remain below 32 degrees for more than
2 hours.